Time;durP1;ratioP1;P1;durP2;ratioP2;P2;SDS_P1;SDS_P2;PMS_P1;PMS_P2;Temp;Humidity;BMP_temperature;BMP_pressure;BME280_temperature;BME280_humidity;BME280_pressure;Samples;Min_cycle;Max_cycle;Signal;HPM_P1;HPM_P2
2023/12/12 00:01:34;;;;;;;0.90;0.70;;;21.10;57.40;;;;;;5093353;28;20204;-66
2023/12/12 00:03:59;;;;;;;0.80;0.60;;;21.10;57.40;;;;;;5093293;28;20403;-66
2023/12/12 00:06:25;;;;;;;1.30;0.83;;;21.10;57.40;;;;;;5093227;28;20423;-66
2023/12/12 00:08:51;;;;;;;1.20;0.93;;;21.10;57.80;;;;;;5093257;28;20188;-66
2023/12/12 00:11:16;;;;;;;1.17;0.80;;;21.10;57.40;;;;;;5093131;28;20175;-66
2023/12/12 00:13:42;;;;;;;1.30;0.83;;;21.10;57.40;;;;;;5093136;28;20626;-65
2023/12/12 00:16:08;;;;;;;1.40;0.90;;;21.10;57.40;;;;;;5092917;28;20193;-66
2023/12/12 00:18:35;;;;;;;1.70;0.80;;;21.10;57.40;;;;;;5092748;28;20212;-66
2023/12/12 00:21:02;;;;;;;0.90;0.70;;;21.10;57.30;;;;;;5092992;28;20403;-66
2023/12/12 00:23:28;;;;;;;1.47;0.90;;;21.10;57.40;;;;;;5093216;28;20415;-66
2023/12/12 00:25:54;;;;;;;1.20;0.70;;;21.10;57.30;;;;;;5092811;28;20851;-66
2023/12/12 00:28:19;;;;;;;1.10;0.70;;;21.10;57.30;;;;;;5092821;28;20411;-66
2023/12/12 00:30:45;;;;;;;2.30;0.70;;;21.10;57.30;;;;;;5092748;28;20664;-64
2023/12/12 00:33:10;;;;;;;1.60;0.90;;;21.10;57.40;;;;;;5092709;28;20174;-66
2023/12/12 00:35:36;;;;;;;1.20;0.87;;;21.10;57.40;;;;;;5092611;28;20194;-66
2023/12/12 00:38:01;;;;;;;1.00;0.70;;;21.10;57.40;;;;;;5092804;28;20201;-66
2023/12/12 00:40:27;;;;;;;1.07;0.80;;;21.10;57.40;;;;;;5091203;28;20173;-66
2023/12/12 00:42:53;;;;;;;1.33;0.90;;;21.10;57.40;;;;;;5092529;28;20372;-67
2023/12/12 00:45:18;;;;;;;1.17;0.80;;;21.10;57.40;;;;;;5092408;28;20222;-66
2023/12/12 00:47:44;;;;;;;1.60;0.97;;;21.10;57.40;;;;;;5091034;28;20675;-66
2023/12/12 00:50:09;;;;;;;1.20;0.80;;;21.10;57.30;;;;;;5092331;28;20256;-66
2023/12/12 00:52:35;;;;;;;1.17;0.80;;;21.10;57.40;;;;;;5092357;28;20595;-66
2023/12/12 00:55:01;;;;;;;1.13;0.83;;;21.10;57.30;;;;;;5092387;28;20174;-66
2023/12/12 00:57:27;;;;;;;2.90;0.70;;;21.10;57.30;;;;;;5092230;28;20182;-66
2023/12/12 00:59:55;;;;;;;1.30;1.00;;;21.10;57.30;;;;;;5092101;28;20254;-66
2023/12/12 01:02:26;;;;;;;1.30;1.10;;;21.10;57.60;;;;;;5092143;28;20241;-66
2023/12/12 01:04:52;;;;;;;1.27;0.80;;;21.10;57.30;;;;;;5092453;28;20475;-66
2023/12/12 01:07:18;;;;;;;1.43;0.90;;;21.10;57.30;;;;;;5091987;28;20481;-66
2023/12/12 01:09:45;;;;;;;1.10;0.70;;;21.10;57.30;;;;;;5091997;28;20411;-66
2023/12/12 01:12:11;;;;;;;1.93;0.80;;;21.00;57.20;;;;;;5092037;28;20427;-66
2023/12/12 01:14:37;;;;;;;1.47;0.80;;;21.00;57.20;;;;;;5091987;28;20779;-66
2023/12/12 01:17:03;;;;;;;1.10;0.73;;;21.00;57.20;;;;;;5091783;28;20435;-64
2023/12/12 01:19:29;;;;;;;1.27;0.70;;;21.10;57.40;;;;;;5091669;28;20205;-66
2023/12/12 01:21:55;;;;;;;1.00;0.80;;;21.00;57.20;;;;;;5090544;28;20477;-66
2023/12/12 01:24:21;;;;;;;1.00;0.60;;;21.10;57.30;;;;;;5090554;28;20415;-66
2023/12/12 01:26:46;;;;;;;1.20;0.90;;;21.00;57.20;;;;;;5091666;28;20194;-66
2023/12/12 01:29:16;;;;;;;2.70;0.90;;;21.00;57.20;;;;;;5091250;28;20169;-66
2023/12/12 01:31:44;;;;;;;1.50;0.93;;;21.10;57.30;;;;;;5091521;28;20231;-65
2023/12/12 01:34:10;;;;;;;1.20;0.70;;;21.00;57.20;;;;;;5091623;28;20455;-66
2023/12/12 01:36:35;;;;;;;1.20;0.73;;;21.00;57.20;;;;;;5091492;28;20458;-64
2023/12/12 01:39:01;;;;;;;4.07;1.07;;;21.00;57.20;;;;;;5091396;28;20207;-66
2023/12/12 01:41:27;;;;;;;1.20;0.90;;;21.00;57.20;;;;;;5091504;28;20176;-66
2023/12/12 01:43:53;;;;;;;1.20;0.90;;;21.00;57.20;;;;;;5091450;28;20644;-66
2023/12/12 01:46:20;;;;;;;1.10;0.70;;;21.00;57.20;;;;;;5091346;28;20276;-66
2023/12/12 01:48:47;;;;;;;1.00;0.70;;;21.00;57.30;;;;;;5090344;28;20192;-66
2023/12/12 01:51:14;;;;;;;1.27;0.80;;;21.00;57.20;;;;;;5091324;28;20428;-66
2023/12/12 01:53:50;;;;;;;1.90;0.80;;;21.00;57.20;;;;;;5091515;28;20419;-66
2023/12/12 01:56:15;;;;;;;0.83;0.70;;;21.00;57.20;;;;;;5091175;28;20459;-66
2023/12/12 01:58:45;;;;;;;1.47;0.90;;;21.00;57.20;;;;;;5091095;28;20961;-66
2023/12/12 02:01:12;;;;;;;0.90;0.70;;;21.00;57.20;;;;;;5091169;28;20587;-66
2023/12/12 02:03:39;;;;;;;1.00;0.63;;;21.00;57.20;;;;;;5091103;28;20419;-66
2023/12/12 02:06:06;;;;;;;1.00;0.70;;;21.00;57.30;;;;;;5091001;28;20438;-66
2023/12/12 02:08:31;;;;;;;1.53;0.83;;;21.00;57.20;;;;;;5089881;28;20412;-66
2023/12/12 02:10:57;;;;;;;0.90;0.70;;;21.00;57.20;;;;;;5091074;28;20523;-66
2023/12/12 02:13:23;;;;;;;1.13;0.80;;;21.00;57.20;;;;;;5091015;28;20170;-66
2023/12/12 02:15:48;;;;;;;1.27;0.83;;;21.00;57.20;;;;;;5090949;28;20201;-66
2023/12/12 02:18:14;;;;;;;1.20;0.80;;;21.00;57.20;;;;;;5090864;28;20212;-66
2023/12/12 02:20:40;;;;;;;1.20;0.80;;;21.00;57.20;;;;;;5090957;28;20259;-66
2023/12/12 02:23:07;;;;;;;1.00;0.80;;;21.00;57.30;;;;;;5091241;28;20173;-65
2023/12/12 02:25:33;;;;;;;1.10;0.70;;;21.00;57.30;;;;;;5090839;28;20435;-66
2023/12/12 02:28:01;;;;;;;3.00;0.70;;;21.00;57.30;;;;;;5090831;28;20411;-67
2023/12/12 02:30:26;;;;;;;1.20;0.93;;;21.00;57.20;;;;;;5090715;28;20461;-66
2023/12/12 02:32:52;;;;;;;1.20;0.90;;;21.00;57.20;;;;;;5084526;28;20452;-66
2023/12/12 02:35:17;;;;;;;1.37;0.70;;;21.00;57.20;;;;;;5070528;28;20269;-66
2023/12/12 02:37:43;;;;;;;1.27;0.80;;;21.00;57.20;;;;;;5069002;28;20186;-66
2023/12/12 02:40:09;;;;;;;1.17;0.77;;;21.00;57.20;;;;;;5070683;28;20210;-66
2023/12/12 02:42:35;;;;;;;1.10;0.70;;;21.00;57.30;;;;;;5074276;28;20695;-66
2023/12/12 02:45:00;;;;;;;1.07;0.80;;;21.00;57.30;;;;;;5074274;28;20416;-66
2023/12/12 02:47:26;;;;;;;0.90;0.60;;;21.00;57.30;;;;;;5074421;28;20287;-66
2023/12/12 02:49:51;;;;;;;1.17;0.70;;;21.00;57.30;;;;;;5073141;28;20186;-66
2023/12/12 02:52:17;;;;;;;1.17;0.80;;;21.00;57.30;;;;;;5074401;28;20220;-66
2023/12/12 02:54:43;;;;;;;1.10;0.80;;;21.00;57.30;;;;;;5074383;28;20181;-66
2023/12/12 02:57:08;;;;;;;0.90;0.70;;;21.00;57.30;;;;;;5074193;28;20235;-66
2023/12/12 02:59:34;;;;;;;1.00;0.73;;;21.00;57.30;;;;;;5074204;28;20251;-66
2023/12/12 03:01:59;;;;;;;1.37;0.80;;;21.00;57.30;;;;;;5074200;28;20174;-66
2023/12/12 03:04:25;;;;;;;1.20;0.77;;;21.00;57.30;;;;;;5074245;28;20171;-66
2023/12/12 03:06:50;;;;;;;1.17;0.70;;;21.00;57.30;;;;;;5074043;28;20194;-66
2023/12/12 03:09:16;;;;;;;1.30;0.70;;;21.00;57.30;;;;;;5074006;28;20576;-65
2023/12/12 03:11:42;;;;;;;1.50;0.90;;;20.90;57.20;;;;;;5074086;28;20167;-66
2023/12/12 03:14:07;;;;;;;1.40;1.00;;;21.00;57.30;;;;;;5073952;28;20554;-66
2023/12/12 03:16:33;;;;;;;1.10;0.70;;;20.90;57.20;;;;;;5073924;28;20229;-67
2023/12/12 03:18:59;;;;;;;1.37;0.70;;;21.00;57.30;;;;;;5073650;28;20322;-65
2023/12/12 03:21:24;;;;;;;1.13;0.80;;;21.00;57.30;;;;;;5073866;28;20803;-66
2023/12/12 03:23:50;;;;;;;1.40;0.90;;;21.00;57.30;;;;;;5073741;28;20573;-66
2023/12/12 03:26:16;;;;;;;1.13;0.80;;;20.90;57.20;;;;;;5072377;28;20233;-66
2023/12/12 03:28:41;;;;;;;0.90;0.70;;;20.90;57.20;;;;;;5073664;28;20201;-65
2023/12/12 03:31:08;;;;;;;1.10;0.70;;;21.00;57.30;;;;;;5073674;28;20182;-66
2023/12/12 03:33:33;;;;;;;0.90;0.70;;;20.90;57.20;;;;;;5073681;28;20190;-66
2023/12/12 03:35:59;;;;;;;2.37;0.90;;;20.90;57.30;;;;;;5073527;28;20942;-66
2023/12/12 03:38:25;;;;;;;1.97;0.80;;;20.90;57.20;;;;;;5073485;28;20615;-66
2023/12/12 03:40:50;;;;;;;1.30;0.80;;;21.00;57.30;;;;;;5073480;28;20257;-67
2023/12/12 03:43:16;;;;;;;1.07;0.90;;;21.00;57.30;;;;;;5073530;28;20186;-65
2023/12/12 03:45:42;;;;;;;1.13;0.70;;;21.00;57.30;;;;;;5072278;28;20248;-66
2023/12/12 03:48:08;;;;;;;1.53;0.70;;;20.90;57.20;;;;;;5073343;28;20180;-66
2023/12/12 03:50:34;;;;;;;1.10;0.73;;;20.90;57.20;;;;;;5072916;28;20495;-66
2023/12/12 03:52:59;;;;;;;0.90;0.60;;;20.90;57.20;;;;;;5073294;28;20233;-66
2023/12/12 03:55:25;;;;;;;0.90;0.60;;;20.90;57.20;;;;;;5073511;28;20229;-66
2023/12/12 03:57:50;;;;;;;1.30;0.93;;;21.00;57.30;;;;;;5073111;28;20641;-66
2023/12/12 04:00:16;;;;;;;1.00;0.60;;;21.00;57.30;;;;;;5073177;28;20261;-66
2023/12/12 04:02:42;;;;;;;1.10;0.70;;;20.90;57.30;;;;;;5073123;28;20174;-66
2023/12/12 04:05:09;;;;;;;1.30;0.77;;;21.00;57.30;;;;;;5072981;28;20542;-66
2023/12/12 04:07:39;;;;;;;1.00;0.70;;;21.00;57.30;;;;;;5073102;28;20167;-66
2023/12/12 04:10:06;;;;;;;1.03;0.90;;;20.90;57.20;;;;;;5073002;28;20440;-66
2023/12/12 04:12:35;;;;;;;0.93;0.70;;;21.00;57.30;;;;;;5072984;28;20496;-66
2023/12/12 04:15:01;;;;;;;0.90;0.60;;;20.90;57.20;;;;;;5072947;28;21208;-66
2023/12/12 04:17:27;;;;;;;1.20;0.70;;;20.90;57.20;;;;;;5072652;28;20994;-66
2023/12/12 04:19:53;;;;;;;1.20;0.80;;;20.90;57.20;;;;;;5072874;28;20985;-66
2023/12/12 04:22:19;;;;;;;1.70;0.77;;;21.00;57.30;;;;;;5072795;28;20405;-66
2023/12/12 04:24:44;;;;;;;1.30;0.70;;;21.00;57.30;;;;;;5071559;28;20166;-66
2023/12/12 04:27:10;;;;;;;1.20;0.70;;;20.90;57.20;;;;;;5072654;28;20198;-66
2023/12/12 04:29:35;;;;;;;1.47;0.70;;;20.90;57.20;;;;;;5072560;28;20583;-65
2023/12/12 04:32:01;;;;;;;1.10;0.70;;;20.90;57.30;;;;;;5072519;28;20591;-66
2023/12/12 04:34:31;;;;;;;0.80;0.60;;;21.00;57.30;;;;;;5072554;28;20178;-66
2023/12/12 04:36:56;;;;;;;1.10;0.73;;;21.00;57.30;;;;;;5072370;28;20319;-62
2023/12/12 04:39:22;;;;;;;1.20;0.60;;;20.90;57.20;;;;;;5071096;28;20547;-66
2023/12/12 04:41:47;;;;;;;1.20;0.80;;;20.90;57.20;;;;;;5072366;28;20246;-66
2023/12/12 04:44:13;;;;;;;1.20;0.70;;;21.00;57.30;;;;;;5072625;28;20181;-65
2023/12/12 04:46:38;;;;;;;1.00;0.70;;;20.90;57.20;;;;;;5072153;28;20190;-65
2023/12/12 04:49:04;;;;;;;1.10;0.87;;;21.00;57.30;;;;;;5072275;28;20186;-65
2023/12/12 04:51:30;;;;;;;1.10;0.80;;;20.90;57.20;;;;;;5072202;28;20174;-66
2023/12/12 04:53:55;;;;;;;1.37;0.70;;;20.90;57.00;;;;;;5071131;28;20182;-65
2023/12/12 04:56:21;;;;;;;1.10;0.60;;;20.90;57.20;;;;;;5071910;28;20224;-66
2023/12/12 04:58:46;;;;;;;1.50;0.60;;;21.00;57.30;;;;;;5072021;28;20280;-66
2023/12/12 05:01:16;;;;;;;0.90;0.60;;;20.90;57.30;;;;;;5071962;28;20972;-65
2023/12/12 05:03:41;;;;;;;1.30;0.70;;;20.90;57.30;;;;;;5071369;28;20177;-65
2023/12/12 05:06:08;;;;;;;1.07;0.67;;;20.90;57.40;;;;;;5071813;28;20919;-66
2023/12/12 05:08:34;;;;;;;0.80;0.60;;;21.00;57.40;;;;;;5071908;28;20204;-65
2023/12/12 05:11:00;;;;;;;1.00;0.80;;;21.00;57.50;;;;;;5071799;28;20507;-66
2023/12/12 05:13:26;;;;;;;1.10;0.73;;;21.00;57.50;;;;;;5071741;28;20174;-66
2023/12/12 05:15:51;;;;;;;1.03;0.70;;;20.90;57.40;;;;;;5071627;28;20190;-66
2023/12/12 05:18:17;;;;;;;0.90;0.70;;;20.90;57.40;;;;;;5071402;28;20197;-65
2023/12/12 05:20:43;;;;;;;0.90;0.70;;;20.90;57.40;;;;;;5071182;28;20419;-65
2023/12/12 05:23:09;;;;;;;1.67;0.70;;;20.90;57.40;;;;;;5070988;28;20178;-66
2023/12/12 05:25:35;;;;;;;3.17;1.00;;;21.00;57.50;;;;;;5070880;28;20440;-66
2023/12/12 05:28:01;;;;;;;3.00;1.80;;;21.00;57.30;;;;;;5070664;28;20408;-66
2023/12/12 05:30:26;;;;;;;3.60;1.80;;;21.00;57.00;;;;;;5070542;28;20206;-66
2023/12/12 05:32:52;;;;;;;2.70;1.60;;;21.00;56.50;;;;;;5071235;28;20710;-64
2023/12/12 05:35:17;;;;;;;5.33;2.10;;;21.00;56.30;;;;;;5071254;28;20170;-66
2023/12/12 05:37:43;;;;;;;4.97;2.07;;;21.00;56.40;;;;;;5071410;28;20185;-63
2023/12/12 05:40:09;;;;;;;4.70;1.30;;;20.90;56.60;;;;;;5087049;28;20534;-66
2023/12/12 05:42:35;;;;;;;1.53;0.93;;;20.90;56.70;;;;;;5091458;28;20411;-65
2023/12/12 05:45:02;;;;;;;1.60;1.27;;;20.90;56.90;;;;;;5091674;28;20410;-66
2023/12/12 05:47:27;;;;;;;2.23;1.23;;;21.00;57.00;;;;;;5091331;28;21026;-65
2023/12/12 05:49:53;;;;;;;1.37;0.90;;;20.90;56.90;;;;;;5091180;28;20403;-65
2023/12/12 05:52:19;;;;;;;1.37;0.97;;;20.90;56.90;;;;;;5091214;28;20170;-64
2023/12/12 05:54:46;;;;;;;2.00;0.93;;;21.00;57.00;;;;;;5091136;28;20759;-65
2023/12/12 05:57:11;;;;;;;3.03;1.30;;;20.90;57.00;;;;;;5091030;28;20238;-66
2023/12/12 05:59:37;;;;;;;1.40;0.90;;;20.90;57.00;;;;;;5091077;28;20958;-65
2023/12/12 06:02:04;;;;;;;2.33;0.97;;;20.90;57.00;;;;;;5091023;28;20215;-65
2023/12/12 06:04:29;;;;;;;1.83;1.10;;;20.90;57.00;;;;;;5091150;28;20166;-64
2023/12/12 06:06:55;;;;;;;2.77;1.00;;;20.90;57.00;;;;;;5090767;28;20457;-64
2023/12/12 06:09:20;;;;;;;2.80;0.90;;;20.90;57.00;;;;;;5090638;28;20545;-66
2023/12/12 06:11:46;;;;;;;2.30;1.13;;;20.90;57.00;;;;;;5089381;28;20707;-67
2023/12/12 06:14:12;;;;;;;2.47;1.13;;;20.90;57.00;;;;;;5090427;28;20561;-65
2023/12/12 06:16:38;;;;;;;3.23;1.23;;;20.90;57.00;;;;;;5090244;28;20200;-66
2023/12/12 06:19:04;;;;;;;2.00;1.10;;;20.90;57.10;;;;;;5089873;28;20889;-66
2023/12/12 06:21:33;;;;;;;1.40;0.90;;;20.90;57.00;;;;;;5090504;28;20173;-66
2023/12/12 06:24:03;;;;;;;2.40;1.07;;;21.00;57.20;;;;;;5090420;28;20453;-66
2023/12/12 06:26:30;;;;;;;1.57;0.90;;;20.90;57.10;;;;;;5090060;28;20419;-67
2023/12/12 06:28:55;;;;;;;2.67;1.00;;;21.00;57.10;;;;;;5090883;28;20408;-66
2023/12/12 06:31:22;;;;;;;2.30;1.10;;;21.00;57.10;;;;;;5090703;28;20403;-65
2023/12/12 06:33:49;;;;;;;1.83;1.10;;;21.00;57.10;;;;;;5090131;28;20707;-67
2023/12/12 06:36:15;;;;;;;2.43;1.10;;;21.00;57.10;;;;;;5090121;28;20439;-67
2023/12/12 06:38:42;;;;;;;2.93;1.10;;;21.00;57.10;;;;;;5090016;28;20447;-66
2023/12/12 06:41:09;;;;;;;1.67;1.23;;;21.00;57.10;;;;;;5090334;28;20177;-66
2023/12/12 06:43:34;;;;;;;2.10;1.33;;;21.10;57.10;;;;;;5090052;28;20836;-66
2023/12/12 06:46:00;;;;;;;2.60;1.40;;;21.10;57.10;;;;;;5089979;28;20545;-66
2023/12/12 06:48:26;;;;;;;1.67;1.23;;;21.10;57.20;;;;;;5089942;28;20204;-66
2023/12/12 06:50:52;;;;;;;1.60;1.20;;;21.10;57.70;;;;;;5090333;28;20201;-66
2023/12/12 06:53:18;;;;;;;1.93;1.10;;;21.10;57.10;;;;;;5090283;28;20640;-66
2023/12/12 06:55:44;;;;;;;2.13;1.07;;;21.10;57.10;;;;;;5089966;28;20197;-66
2023/12/12 06:58:11;;;;;;;1.57;1.00;;;21.10;57.00;;;;;;5090126;28;21111;-67
2023/12/12 07:00:39;;;;;;;1.90;1.23;;;21.20;57.10;;;;;;5089816;28;20170;-66
2023/12/12 07:03:05;;;;;;;1.90;1.00;;;21.10;57.00;;;;;;5089726;28;20404;-66
2023/12/12 07:05:31;;;;;;;3.70;1.20;;;21.20;57.10;;;;;;5089807;28;20426;-66
2023/12/12 07:07:56;;;;;;;3.03;1.40;;;21.20;57.10;;;;;;5089786;28;20230;-67
2023/12/12 07:10:22;;;;;;;2.13;1.07;;;21.20;57.00;;;;;;5089921;28;20238;-66
2023/12/12 07:12:47;;;;;;;3.47;0.90;;;21.20;57.00;;;;;;5088390;28;20252;-66
2023/12/12 07:15:13;;;;;;;1.83;1.50;;;21.20;57.10;;;;;;5088377;28;20652;-66
2023/12/12 07:17:39;;;;;;;2.30;0.80;;;21.20;57.00;;;;;;5089883;28;20242;-67
2023/12/12 07:20:05;;;;;;;1.97;1.00;;;21.20;57.00;;;;;;5088361;28;20359;-65
2023/12/12 07:22:31;;;;;;;1.97;1.00;;;21.20;57.00;;;;;;5089858;28;20170;-66
2023/12/12 07:24:56;;;;;;;1.97;1.20;;;21.30;57.10;;;;;;5089754;28;20958;-66
2023/12/12 07:27:22;;;;;;;2.43;1.47;;;21.20;57.00;;;;;;5093207;28;20246;-65
2023/12/12 07:29:47;;;;;;;1.30;0.90;;;21.30;57.10;;;;;;5093330;28;20181;-67
2023/12/12 07:32:14;;;;;;;2.07;0.93;;;21.30;57.10;;;;;;5093309;28;20288;-66
2023/12/12 07:34:39;;;;;;;1.60;1.20;;;21.30;57.10;;;;;;5093508;28;21294;-67
2023/12/12 07:37:06;;;;;;;1.50;0.90;;;21.30;57.00;;;;;;5093187;28;20186;-65
2023/12/12 07:39:31;;;;;;;1.63;0.90;;;21.30;57.00;;;;;;5092092;28;20205;-64
2023/12/12 07:41:57;;;;;;;1.33;0.80;;;21.30;57.00;;;;;;5093286;28;20998;-66
2023/12/12 07:44:23;;;;;;;1.70;0.90;;;21.30;57.00;;;;;;5093143;28;20524;-65
2023/12/12 07:46:49;;;;;;;1.73;1.00;;;21.30;57.00;;;;;;5093012;28;20875;-66
2023/12/12 07:49:15;;;;;;;0.93;0.73;;;21.30;57.60;;;;;;5092992;28;20410;-66
2023/12/12 07:51:40;;;;;;;2.30;1.30;;;21.30;57.00;;;;;;5093263;28;20181;-66
2023/12/12 07:54:06;;;;;;;1.30;0.90;;;21.30;57.00;;;;;;5092836;28;20403;-66
2023/12/12 07:56:32;;;;;;;1.50;1.20;;;21.30;57.00;;;;;;5092799;28;20193;-66
2023/12/12 07:58:58;;;;;;;1.33;0.80;;;21.30;57.00;;;;;;5092633;28;20523;-65
2023/12/12 08:01:23;;;;;;;2.07;1.17;;;21.30;57.00;;;;;;5092768;28;20177;-65
2023/12/12 08:03:50;;;;;;;1.73;1.20;;;21.30;57.00;;;;;;5092716;28;20170;-65
2023/12/12 08:06:16;;;;;;;1.00;0.80;;;21.30;57.00;;;;;;5092852;28;20197;-66
2023/12/12 08:08:41;;;;;;;1.73;1.10;;;21.30;57.00;;;;;;5092605;28;20776;-66
2023/12/12 08:11:13;;;;;;;1.37;0.90;;;21.30;57.00;;;;;;5092802;28;20173;-66
2023/12/12 08:13:39;;;;;;;1.33;1.00;;;21.30;57.00;;;;;;5092470;28;20182;-66
2023/12/12 08:16:05;;;;;;;2.63;1.20;;;21.30;57.00;;;;;;5092422;28;20950;-66
2023/12/12 08:18:31;;;;;;;1.87;1.10;;;21.30;57.00;;;;;;5092404;28;20585;-66
2023/12/12 08:20:57;;;;;;;1.20;0.80;;;21.30;57.00;;;;;;5092367;28;20404;-67
2023/12/12 08:23:23;;;;;;;2.10;1.10;;;21.30;57.00;;;;;;5092363;28;20423;-66
2023/12/12 08:25:49;;;;;;;1.30;1.00;;;21.30;57.00;;;;;;5090831;28;20190;-67
2023/12/12 08:28:14;;;;;;;2.20;0.97;;;21.30;57.00;;;;;;5092530;28;20173;-66
2023/12/12 08:30:40;;;;;;;1.53;0.90;;;21.30;57.00;;;;;;5092696;28;20184;-66
2023/12/12 08:33:06;;;;;;;2.00;0.97;;;21.30;57.00;;;;;;5092413;28;20178;-66
2023/12/12 08:35:31;;;;;;;1.50;0.90;;;21.30;57.00;;;;;;5092033;28;20435;-66
2023/12/12 08:37:57;;;;;;;1.10;0.80;;;21.30;57.00;;;;;;5091944;28;20200;-67
2023/12/12 08:40:23;;;;;;;2.60;1.10;;;21.30;57.00;;;;;;5091936;28;20172;-66
2023/12/12 08:42:48;;;;;;;1.53;0.83;;;21.30;57.00;;;;;;5092691;28;20170;-66
2023/12/12 08:45:14;;;;;;;2.17;1.37;;;21.30;57.00;;;;;;5091062;28;20205;-66
2023/12/12 08:47:39;;;;;;;1.60;0.90;;;21.30;57.00;;;;;;5092448;28;20165;-66
2023/12/12 08:50:05;;;;;;;1.70;0.80;;;21.30;57.00;;;;;;5092127;28;20173;-67
2023/12/12 08:52:34;;;;;;;1.30;0.90;;;21.30;57.00;;;;;;5091745;28;20184;-67
2023/12/12 08:54:59;;;;;;;1.63;1.00;;;21.40;57.10;;;;;;5091672;28;20965;-67
2023/12/12 08:57:25;;;;;;;0.90;0.70;;;21.40;57.10;;;;;;5091436;28;20580;-67
2023/12/12 08:59:51;;;;;;;1.70;1.10;;;21.40;57.10;;;;;;5091415;28;20185;-66
2023/12/12 09:02:17;;;;;;;1.20;0.90;;;21.40;57.10;;;;;;5091474;28;20253;-67
2023/12/12 09:04:43;;;;;;;2.10;0.90;;;21.40;57.10;;;;;;5091626;28;20407;-67
2023/12/12 09:07:08;;;;;;;1.30;0.90;;;21.40;57.20;;;;;;5091419;28;20926;-65
2023/12/12 09:09:34;;;;;;;1.33;1.00;;;21.40;57.20;;;;;;5091393;28;20270;-66
2023/12/12 09:12:03;;;;;;;2.23;0.97;;;21.40;57.20;;;;;;5091159;28;20170;-67
2023/12/12 09:14:28;;;;;;;1.47;0.80;;;21.40;57.20;;;;;;5091350;28;20173;-67
2023/12/12 09:16:55;;;;;;;1.47;0.80;;;21.40;57.20;;;;;;5091220;28;20423;-66
2023/12/12 09:19:21;;;;;;;1.47;0.97;;;21.40;57.20;;;;;;5091479;28;20287;-67
2023/12/12 09:21:48;;;;;;;1.00;0.80;;;21.40;57.30;;;;;;5091503;28;20503;-67
2023/12/12 09:24:14;;;;;;;1.40;1.00;;;21.40;57.20;;;;;;5091065;28;20461;-67
2023/12/12 09:26:40;;;;;;;3.23;1.00;;;21.40;57.20;;;;;;5090910;28;20435;-66
2023/12/12 09:29:06;;;;;;;0.90;0.80;;;21.40;57.30;;;;;;5089604;28;20544;-67
2023/12/12 09:31:32;;;;;;;1.47;0.93;;;21.40;57.30;;;;;;5090925;28;20182;-66
2023/12/12 09:33:58;;;;;;;1.30;1.10;;;21.40;57.30;;;;;;5089586;28;20219;-66
2023/12/12 09:36:23;;;;;;;1.53;0.90;;;21.40;57.30;;;;;;5089411;28;20451;-66
2023/12/12 09:38:49;;;;;;;1.10;1.00;;;21.40;57.30;;;;;;5090652;28;20197;-67
2023/12/12 09:41:24;;;;;;;1.10;1.00;;;21.40;57.30;;;;;;5089339;28;20162;-67
2023/12/12 09:43:50;;;;;;;1.20;0.90;;;21.40;57.30;;;;;;5090696;28;20156;-64
2023/12/12 09:46:17;;;;;;;2.23;0.90;;;21.40;57.30;;;;;;5089191;28;20439;-67
2023/12/12 09:48:45;;;;;;;1.50;1.00;;;21.40;57.30;;;;;;5088799;28;20757;-67
2023/12/12 09:51:14;;;;;;;1.43;0.83;;;21.40;57.30;;;;;;5089205;28;20431;-66
2023/12/12 09:53:46;;;;;;;1.10;0.83;;;21.40;57.40;;;;;;5090533;28;20407;-67
2023/12/12 09:56:17;;;;;;;1.80;0.90;;;21.40;57.30;;;;;;5090683;28;20466;-67
2023/12/12 09:58:46;;;;;;;1.63;0.97;;;21.40;57.30;;;;;;5089350;28;20435;-67
2023/12/12 10:01:12;;;;;;;1.10;0.70;;;21.40;57.40;;;;;;5090324;28;20456;-67
2023/12/12 10:03:39;;;;;;;1.30;0.93;;;21.40;57.40;;;;;;5088964;28;20882;-66
2023/12/12 10:06:08;;;;;;;1.23;0.80;;;21.40;57.40;;;;;;5088855;28;20428;-67
2023/12/12 10:08:37;;;;;;;1.90;0.83;;;21.40;57.40;;;;;;5090368;28;20412;-66
2023/12/12 10:11:05;;;;;;;1.50;1.00;;;21.40;57.40;;;;;;5090386;28;20941;-67
2023/12/12 10:13:50;;;;;;;1.10;0.80;;;21.30;57.30;;;;;;5090320;28;20435;-66
2023/12/12 10:16:16;;;;;;;1.10;0.70;;;21.40;57.40;;;;;;5088825;28;20435;-67
2023/12/12 10:18:44;;;;;;;1.63;0.93;;;21.40;57.40;;;;;;5088783;28;20451;-67
2023/12/12 10:21:16;;;;;;;1.47;0.87;;;21.30;57.30;;;;;;5088842;28;20404;-66
2023/12/12 10:23:50;;;;;;;1.33;0.90;;;21.40;57.40;;;;;;5090166;28;20889;-67
2023/12/12 10:26:26;;;;;;;1.37;1.27;;;21.40;57.40;;;;;;5090101;28;20422;-66
2023/12/12 10:28:54;;;;;;;1.20;0.90;;;21.30;57.30;;;;;;5090441;28;20841;-67
2023/12/12 10:31:20;;;;;;;1.17;0.90;;;21.40;57.40;;;;;;5088768;28;20423;-67
2023/12/12 10:33:47;;;;;;;1.30;1.20;;;21.30;57.30;;;;;;5088600;28;20419;-67
2023/12/12 10:36:12;;;;;;;1.47;1.30;;;21.30;57.30;;;;;;5089942;28;20994;-66
2023/12/12 10:38:38;;;;;;;1.50;0.73;;;21.30;57.40;;;;;;5088830;28;20447;-67
2023/12/12 10:41:19;;;;;;;1.70;0.90;;;21.30;57.40;;;;;;5089075;28;20224;-66
2023/12/12 10:43:46;;;;;;;1.13;0.80;;;21.30;57.90;;;;;;5090045;28;20422;-67
2023/12/12 10:46:16;;;;;;;2.10;0.90;;;21.30;57.90;;;;;;5071509;28;20457;-67
2023/12/12 10:48:43;;;;;;;1.20;1.00;;;21.30;57.40;;;;;;5089913;28;20460;-67
2023/12/12 10:51:11;;;;;;;2.00;1.00;;;21.30;57.40;;;;;;5088422;28;20586;-67
2023/12/12 10:53:37;;;;;;;1.63;0.90;;;21.30;57.40;;;;;;5088676;28;20529;-65
2023/12/12 10:56:05;;;;;;;1.83;1.00;;;21.30;57.40;;;;;;5089069;28;20454;-67
2023/12/12 10:58:33;;;;;;;1.50;0.80;;;21.30;57.40;;;;;;5089003;28;21110;-67
2023/12/12 11:01:00;;;;;;;1.03;0.87;;;21.40;57.50;;;;;;5091732;28;20767;-66
2023/12/12 11:03:26;;;;;;;1.77;0.87;;;21.30;57.40;;;;;;5093040;28;20436;-67
2023/12/12 11:05:52;;;;;;;1.30;1.03;;;21.30;57.40;;;;;;5093284;28;20979;-67
2023/12/12 11:08:19;;;;;;;1.73;0.87;;;21.30;57.40;;;;;;5094536;28;20236;-67
2023/12/12 11:10:46;;;;;;;1.23;0.87;;;21.30;57.40;;;;;;5094367;28;20395;-66
2023/12/12 11:13:15;;;;;;;1.43;0.90;;;21.30;57.40;;;;;;5093474;28;20414;-67
2023/12/12 11:15:42;;;;;;;1.00;0.80;;;21.40;57.40;;;;;;5093512;28;20442;-67
2023/12/12 11:18:09;;;;;;;1.37;0.70;;;21.30;57.40;;;;;;5093646;28;20470;-67
2023/12/12 11:20:40;;;;;;;1.00;0.70;;;21.30;57.40;;;;;;5094208;28;20419;-67
2023/12/12 11:23:07;;;;;;;1.57;1.23;;;21.30;57.90;;;;;;5093655;28;20908;-65
2023/12/12 11:25:37;;;;;;;1.30;1.20;;;21.30;57.40;;;;;;5093587;28;20419;-67
2023/12/12 11:28:03;;;;;;;1.23;0.80;;;21.30;57.40;;;;;;5092221;28;20447;-67
2023/12/12 11:30:34;;;;;;;1.30;1.00;;;21.30;57.40;;;;;;5092306;28;20914;-67
2023/12/12 11:33:00;;;;;;;2.13;0.90;;;21.40;57.50;;;;;;5092067;28;20815;-67
2023/12/12 11:35:30;;;;;;;0.90;0.70;;;21.30;57.40;;;;;;5092035;28;20448;-67
2023/12/12 11:38:02;;;;;;;1.20;0.80;;;21.40;57.50;;;;;;5093699;28;20995;-67
2023/12/12 11:40:30;;;;;;;1.00;0.67;;;21.30;57.40;;;;;;5091758;28;20440;-67
2023/12/12 11:43:17;;;;;;;1.10;0.80;;;21.30;57.40;;;;;;5093086;28;20435;-67
2023/12/12 11:45:43;;;;;;;1.10;0.80;;;21.40;57.50;;;;;;5091650;28;20947;-67
2023/12/12 11:48:09;;;;;;;1.20;1.00;;;21.30;57.50;;;;;;5093184;28;20419;-67
2023/12/12 11:50:35;;;;;;;1.27;0.90;;;21.30;57.40;;;;;;5091940;28;20494;-66
2023/12/12 11:53:02;;;;;;;1.17;0.70;;;21.30;57.50;;;;;;5093635;28;20416;-67
2023/12/12 11:55:31;;;;;;;2.00;0.80;;;21.30;57.40;;;;;;5094076;28;20489;-67
2023/12/12 11:58:05;;;;;;;1.20;0.90;;;21.30;57.50;;;;;;5093375;28;20418;-67
2023/12/12 12:00:32;;;;;;;1.50;0.90;;;21.30;57.50;;;;;;5093530;28;20512;-67
2023/12/12 12:02:59;;;;;;;1.23;0.80;;;21.30;57.50;;;;;;5091989;28;20414;-66
2023/12/12 12:05:25;;;;;;;1.37;0.90;;;21.30;57.50;;;;;;5092114;28;20478;-67
2023/12/12 12:07:50;;;;;;;1.30;0.80;;;21.30;57.50;;;;;;5091454;28;20416;-67
2023/12/12 12:10:16;;;;;;;1.50;1.10;;;21.30;57.50;;;;;;5092589;28;20174;-67
2023/12/12 12:12:54;;;;;;;1.20;0.90;;;21.30;57.50;;;;;;5090820;28;20174;-67
2023/12/12 12:15:21;;;;;;;1.50;1.13;;;21.30;57.50;;;;;;5074730;28;20180;-67
2023/12/12 12:17:46;;;;;;;1.30;0.90;;;21.30;57.50;;;;;;5091977;28;20446;-67
2023/12/12 12:20:12;;;;;;;1.47;0.97;;;21.30;57.50;;;;;;5093089;28;20452;-67
2023/12/12 12:22:38;;;;;;;2.50;1.43;;;21.30;57.50;;;;;;5093119;28;20750;-66
2023/12/12 12:25:05;;;;;;;1.50;1.40;;;21.30;57.50;;;;;;5093090;28;20189;-66
2023/12/12 12:27:32;;;;;;;2.60;2.40;;;21.30;57.50;;;;;;5091520;28;20805;-67
2023/12/12 12:30:05;;;;;;;1.83;1.73;;;21.30;57.50;;;;;;5074744;28;20494;-67
2023/12/12 12:32:32;;;;;;;2.07;1.93;;;21.30;57.50;;;;;;5092780;28;20399;-67
2023/12/12 12:35:11;;;;;;;2.40;2.20;;;21.30;57.50;;;;;;5092987;28;20426;-67
2023/12/12 12:37:37;;;;;;;2.87;2.60;;;21.30;57.50;;;;;;5091324;28;20433;-66
2023/12/12 12:40:05;;;;;;;2.37;2.17;;;21.30;57.50;;;;;;5091190;28;20447;-67
2023/12/12 12:42:35;;;;;;;2.60;2.40;;;21.30;57.50;;;;;;5073700;28;20809;-67
2023/12/12 12:45:03;;;;;;;2.00;1.90;;;21.30;57.60;;;;;;5091799;28;20411;-66